sensor_id;sensor_type;location;lat;lon;timestamp;pressure;altitude;pressure_sealevel;temperature;humidity
2405;BME280;1213;43.206;27.922;2022-09-12T00:01:17;100633.88;;;21.00;100.00
2405;BME280;1213;43.206;27.922;2022-09-12T00:03:44;100627.88;;;20.98;100.00
2405;BME280;1213;43.206;27.922;2022-09-12T00:06:23;100632.75;;;20.87;100.00
2405;BME280;1213;43.206;27.922;2022-09-12T00:08:58;100625.13;;;20.67;100.00
2405;BME280;1213;43.206;27.922;2022-09-12T00:11:25;100635.66;;;20.53;100.00
2405;BME280;1213;43.206;27.922;2022-09-12T00:13:54;100627.69;;;20.44;100.00
2405;BME280;1213;43.206;27.922;2022-09-12T00:16:23;100628.69;;;20.52;100.00
2405;BME280;1213;43.206;27.922;2022-09-12T00:18:49;100643.03;;;20.50;100.00
2405;BME280;1213;43.206;27.922;2022-09-12T00:21:16;100637.88;;;20.49;100.00
2405;BME280;1213;43.206;27.922;2022-09-12T00:23:42;100641.84;;;20.37;100.00
2405;BME280;1213;43.206;27.922;2022-09-12T00:26:07;100642.84;;;20.28;100.00
2405;BME280;1213;43.206;27.922;2022-09-12T00:28:35;100644.69;;;20.27;100.00
2405;BME280;1213;43.206;27.922;2022-09-12T00:31:07;100648.69;;;20.23;100.00
2405;BME280;1213;43.206;27.922;2022-09-12T00:33:34;100640.50;;;20.16;100.00
2405;BME280;1213;43.206;27.922;2022-09-12T00:36:04;100655.50;;;19.93;100.00
2405;BME280;1213;43.206;27.922;2022-09-12T00:38:30;100658.13;;;19.60;100.00
2405;BME280;1213;43.206;27.922;2022-09-12T00:40:56;100664.59;;;19.16;100.00
2405;BME280;1213;43.206;27.922;2022-09-12T00:43:35;100662.78;;;18.82;100.00
2405;BME280;1213;43.206;27.922;2022-09-12T00:48:57;100675.19;;;18.29;100.00
2405;BME280;1213;43.206;27.922;2022-09-12T00:51:24;100691.47;;;18.09;100.00
2405;BME280;1213;43.206;27.922;2022-09-12T00:53:52;100699.66;;;17.97;100.00
2405;BME280;1213;43.206;27.922;2022-09-12T00:56:21;100694.72;;;17.85;100.00
2405;BME280;1213;43.206;27.922;2022-09-12T00:59:11;100711.75;;;17.64;100.00
2405;BME280;1213;43.206;27.922;2022-09-12T01:01:39;100717.88;;;17.65;100.00
2405;BME280;1213;43.206;27.922;2022-09-12T01:04:06;100722.19;;;17.48;100.00
2405;BME280;1213;43.206;27.922;2022-09-12T01:06:36;100719.28;;;17.41;100.00
2405;BME280;1213;43.206;27.922;2022-09-12T01:09:04;100711.25;;;17.24;100.00
2405;BME280;1213;43.206;27.922;2022-09-12T01:11:35;100702.31;;;17.25;100.00
2405;BME280;1213;43.206;27.922;2022-09-12T01:14:02;100683.31;;;17.19;100.00
2405;BME280;1213;43.206;27.922;2022-09-12T01:16:28;100680.72;;;17.10;100.00
2405;BME280;1213;43.206;27.922;2022-09-12T01:32:34;100657.53;;;17.02;100.00
2405;BME280;1213;43.206;27.922;2022-09-12T01:35:13;100663.00;;;17.01;100.00
2405;BME280;1213;43.206;27.922;2022-09-12T01:38:14;100661.59;;;16.97;100.00
2405;BME280;1213;43.206;27.922;2022-09-12T01:41:01;100661.59;;;16.97;100.00
2405;BME280;1213;43.206;27.922;2022-09-12T01:43:41;100660.09;;;16.94;100.00
2405;BME280;1213;43.206;27.922;2022-09-12T01:46:18;100659.63;;;16.99;100.00
2405;BME280;1213;43.206;27.922;2022-09-12T01:49:21;100658.78;;;16.98;100.00
2405;BME280;1213;43.206;27.922;2022-09-12T01:54:56;100656.66;;;17.11;100.00
2405;BME280;1213;43.206;27.922;2022-09-12T01:57:45;100653.84;;;17.13;100.00
2405;BME280;1213;43.206;27.922;2022-09-12T02:00:13;100652.19;;;17.12;100.00
2405;BME280;1213;43.206;27.922;2022-09-12T02:03:07;100645.88;;;17.13;100.00
2405;BME280;1213;43.206;27.922;2022-09-12T02:05:36;100650.34;;;17.12;100.00
2405;BME280;1213;43.206;27.922;2022-09-12T02:08:08;100644.72;;;17.25;100.00
2405;BME280;1213;43.206;27.922;2022-09-12T02:10:55;100642.34;;;17.22;100.00
2405;BME280;1213;43.206;27.922;2022-09-12T02:13:28;100648.38;;;17.14;100.00
2405;BME280;1213;43.206;27.922;2022-09-12T02:16:18;100642.94;;;17.16;100.00
2405;BME280;1213;43.206;27.922;2022-09-12T02:18:51;100643.38;;;17.11;100.00
2405;BME280;1213;43.206;27.922;2022-09-12T02:21:18;100646.19;;;17.10;100.00
2405;BME280;1213;43.206;27.922;2022-09-12T02:23:52;100643.69;;;17.08;100.00
2405;BME280;1213;43.206;27.922;2022-09-12T02:26:24;100644.78;;;17.06;100.00
2405;BME280;1213;43.206;27.922;2022-09-12T02:28:53;100647.59;;;17.04;100.00
2405;BME280;1213;43.206;27.922;2022-09-12T02:39:00;100648.59;;;17.03;100.00
2405;BME280;1213;43.206;27.922;2022-09-12T02:41:26;100639.75;;;17.12;100.00
2405;BME280;1213;43.206;27.922;2022-09-12T02:43:52;100636.94;;;17.14;100.00
2405;BME280;1213;43.206;27.922;2022-09-12T02:46:22;100635.00;;;17.16;100.00
2405;BME280;1213;43.206;27.922;2022-09-12T02:48:51;100638.31;;;17.18;100.00
2405;BME280;1213;43.206;27.922;2022-09-12T02:51:17;100639.94;;;17.29;100.00
2405;BME280;1213;43.206;27.922;2022-09-12T02:53:43;100642.16;;;17.33;100.00
2405;BME280;1213;43.206;27.922;2022-09-12T02:56:17;100650.81;;;17.35;100.00
2405;BME280;1213;43.206;27.922;2022-09-12T02:58:45;100657.34;;;17.41;100.00
2405;BME280;1213;43.206;27.922;2022-09-12T03:12:30;100641.75;;;17.56;100.00
2405;BME280;1213;43.206;27.922;2022-09-12T03:15:18;100640.38;;;17.69;100.00
2405;BME280;1213;43.206;27.922;2022-09-12T03:23:46;100636.53;;;17.82;100.00
2405;BME280;1213;43.206;27.922;2022-09-12T03:26:24;100633.72;;;17.83;100.00
2405;BME280;1213;43.206;27.922;2022-09-12T03:28:53;100620.81;;;17.88;100.00
2405;BME280;1213;43.206;27.922;2022-09-12T03:31:20;100620.59;;;17.82;100.00
2405;BME280;1213;43.206;27.922;2022-09-12T03:33:45;100620.91;;;17.79;100.00
2405;BME280;1213;43.206;27.922;2022-09-12T03:36:24;100621.19;;;17.75;100.00
2405;BME280;1213;43.206;27.922;2022-09-12T03:38:51;100620.81;;;17.70;100.00
2405;BME280;1213;43.206;27.922;2022-09-12T03:41:17;100623.47;;;17.70;100.00
2405;BME280;1213;43.206;27.922;2022-09-12T03:43:42;100616.69;;;17.58;100.00
2405;BME280;1213;43.206;27.922;2022-09-12T03:46:08;100617.81;;;17.56;100.00
2405;BME280;1213;43.206;27.922;2022-09-12T03:48:33;100611.75;;;17.63;100.00
2405;BME280;1213;43.206;27.922;2022-09-12T03:51:00;100619.56;;;17.65;100.00
2405;BME280;1213;43.206;27.922;2022-09-12T03:53:26;100621.06;;;17.77;100.00
2405;BME280;1213;43.206;27.922;2022-09-12T03:55:51;100615.03;;;17.75;100.00
2405;BME280;1213;43.206;27.922;2022-09-12T03:58:17;100627.50;;;17.74;100.00
2405;BME280;1213;43.206;27.922;2022-09-12T04:00:42;100630.53;;;17.80;100.00
2405;BME280;1213;43.206;27.922;2022-09-12T04:03:08;100635.94;;;17.88;100.00
2405;BME280;1213;43.206;27.922;2022-09-12T04:05:34;100627.19;;;17.95;100.00
2405;BME280;1213;43.206;27.922;2022-09-12T04:08:00;100637.81;;;17.95;100.00
2405;BME280;1213;43.206;27.922;2022-09-12T04:10:25;100635.63;;;18.09;100.00
2405;BME280;1213;43.206;27.922;2022-09-12T04:12:52;100650.19;;;18.05;100.00
2405;BME280;1213;43.206;27.922;2022-09-12T04:15:17;100650.31;;;18.21;100.00
2405;BME280;1213;43.206;27.922;2022-09-12T04:17:43;100657.34;;;18.22;100.00
2405;BME280;1213;43.206;27.922;2022-09-12T04:20:09;100662.19;;;18.26;100.00
2405;BME280;1213;43.206;27.922;2022-09-12T04:22:34;100659.38;;;18.28;100.00
2405;BME280;1213;43.206;27.922;2022-09-12T04:25:00;100658.19;;;18.22;100.00
2405;BME280;1213;43.206;27.922;2022-09-12T04:27:26;100666.66;;;18.26;100.00
2405;BME280;1213;43.206;27.922;2022-09-12T04:29:52;100651.09;;;18.31;100.00
2405;BME280;1213;43.206;27.922;2022-09-12T04:32:19;100659.25;;;18.29;100.00
2405;BME280;1213;43.206;27.922;2022-09-12T04:34:45;100667.72;;;18.33;100.00
2405;BME280;1213;43.206;27.922;2022-09-12T04:37:11;100655.75;;;18.29;100.00
2405;BME280;1213;43.206;27.922;2022-09-12T04:39:36;100657.81;;;18.43;100.00
2405;BME280;1213;43.206;27.922;2022-09-12T04:42:02;100668.16;;;18.46;100.00
2405;BME280;1213;43.206;27.922;2022-09-12T04:44:29;100667.94;;;18.40;100.00
2405;BME280;1213;43.206;27.922;2022-09-12T04:46:55;100680.63;;;18.46;100.00
2405;BME280;1213;43.206;27.922;2022-09-12T04:49:22;100683.31;;;18.46;100.00
2405;BME280;1213;43.206;27.922;2022-09-12T04:51:48;100676.09;;;18.38;100.00
2405;BME280;1213;43.206;27.922;2022-09-12T04:54:18;100677.91;;;18.20;100.00
2405;BME280;1213;43.206;27.922;2022-09-12T04:56:45;100663.81;;;18.01;100.00
2405;BME280;1213;43.206;27.922;2022-09-12T04:59:14;100669.97;;;18.02;100.00
2405;BME280;1213;43.206;27.922;2022-09-12T05:01:40;100681.56;;;17.83;100.00
2405;BME280;1213;43.206;27.922;2022-09-12T05:04:06;100685.31;;;17.63;100.00
2405;BME280;1213;43.206;27.922;2022-09-12T05:06:33;100687.00;;;17.64;100.00
2405;BME280;1213;43.206;27.922;2022-09-12T05:09:00;100679.91;;;17.55;100.00
2405;BME280;1213;43.206;27.922;2022-09-12T05:11:31;100677.88;;;17.76;100.00
2405;BME280;1213;43.206;27.922;2022-09-12T05:13:56;100681.19;;;17.96;100.00
2405;BME280;1213;43.206;27.922;2022-09-12T05:16:23;100679.91;;;18.18;100.00
2405;BME280;1213;43.206;27.922;2022-09-12T05:18:49;100679.59;;;18.21;100.00
2405;BME280;1213;43.206;27.922;2022-09-12T05:21:17;100679.59;;;18.39;100.00
2405;BME280;1213;43.206;27.922;2022-09-12T05:23:44;100676.16;;;18.46;100.00
2405;BME280;1213;43.206;27.922;2022-09-12T05:26:12;100677.38;;;18.52;100.00
2405;BME280;1213;43.206;27.922;2022-09-12T05:28:38;100682.97;;;18.49;100.00
2405;BME280;1213;43.206;27.922;2022-09-12T05:31:04;100689.97;;;18.50;100.00
2405;BME280;1213;43.206;27.922;2022-09-12T05:33:31;100684.66;;;18.50;100.00
2405;BME280;1213;43.206;27.922;2022-09-12T05:35:57;100687.31;;;18.50;100.00
2405;BME280;1213;43.206;27.922;2022-09-12T05:38:23;100686.84;;;18.54;100.00
2405;BME280;1213;43.206;27.922;2022-09-12T05:41:01;100688.19;;;18.58;100.00
2405;BME280;1213;43.206;27.922;2022-09-12T05:43:27;100680.91;;;18.61;100.00
2405;BME280;1213;43.206;27.922;2022-09-12T05:46:02;100689.56;;;18.63;100.00
2405;BME280;1213;43.206;27.922;2022-09-12T05:48:28;100693.16;;;18.71;100.00
2405;BME280;1213;43.206;27.922;2022-09-12T05:51:05;100683.22;;;18.81;100.00
2405;BME280;1213;43.206;27.922;2022-09-12T05:53:34;100693.25;;;18.88;100.00
2405;BME280;1213;43.206;27.922;2022-09-12T05:58:30;100697.81;;;19.03;100.00
2405;BME280;1213;43.206;27.922;2022-09-12T06:01:00;100702.72;;;19.16;100.00
2405;BME280;1213;43.206;27.922;2022-09-12T06:03:26;100697.13;;;19.27;100.00
2405;BME280;1213;43.206;27.922;2022-09-12T06:05:52;100689.31;;;19.34;100.00
2405;BME280;1213;43.206;27.922;2022-09-12T06:08:17;100698.00;;;19.36;100.00
2405;BME280;1213;43.206;27.922;2022-09-12T06:10:43;100702.66;;;19.42;100.00
2405;BME280;1213;43.206;27.922;2022-09-12T06:13:08;100703.56;;;19.51;100.00
2405;BME280;1213;43.206;27.922;2022-09-12T06:15:34;100693.22;;;19.56;100.00
2405;BME280;1213;43.206;27.922;2022-09-12T06:17:59;100696.22;;;19.53;100.00
2405;BME280;1213;43.206;27.922;2022-09-12T06:20:24;100704.06;;;19.54;100.00
2405;BME280;1213;43.206;27.922;2022-09-12T06:22:52;100689.94;;;19.62;100.00
2405;BME280;1213;43.206;27.922;2022-09-12T06:25:17;100692.66;;;19.78;100.00
2405;BME280;1213;43.206;27.922;2022-09-12T06:27:43;100699.66;;;19.79;100.00
2405;BME280;1213;43.206;27.922;2022-09-12T06:30:10;100691.16;;;19.84;100.00
2405;BME280;1213;43.206;27.922;2022-09-12T06:32:36;100698.00;;;19.94;100.00
2405;BME280;1213;43.206;27.922;2022-09-12T06:35:02;100687.69;;;20.00;100.00
2405;BME280;1213;43.206;27.922;2022-09-12T06:37:27;100701.38;;;20.05;100.00
2405;BME280;1213;43.206;27.922;2022-09-12T06:39:53;100696.72;;;20.07;100.00
2405;BME280;1213;43.206;27.922;2022-09-12T06:42:19;100704.53;;;20.16;100.00
2405;BME280;1213;43.206;27.922;2022-09-12T06:44:44;100696.88;;;20.30;100.00
2405;BME280;1213;43.206;27.922;2022-09-12T06:47:10;100690.06;;;20.35;100.00
2405;BME280;1213;43.206;27.922;2022-09-12T06:49:36;100695.25;;;20.45;100.00
2405;BME280;1213;43.206;27.922;2022-09-12T06:52:01;100696.41;;;20.50;100.00
2405;BME280;1213;43.206;27.922;2022-09-12T06:54:27;100696.06;;;20.62;100.00
2405;BME280;1213;43.206;27.922;2022-09-12T06:56:54;100693.56;;;20.68;100.00
2405;BME280;1213;43.206;27.922;2022-09-12T06:59:19;100691.22;;;20.73;100.00
2405;BME280;1213;43.206;27.922;2022-09-12T07:01:45;100701.38;;;20.86;100.00
2405;BME280;1213;43.206;27.922;2022-09-12T07:04:10;100692.66;;;20.92;100.00
2405;BME280;1213;43.206;27.922;2022-09-12T07:06:38;100693.31;;;21.02;100.00
2405;BME280;1213;43.206;27.922;2022-09-12T07:09:06;100691.94;;;21.15;100.00
2405;BME280;1213;43.206;27.922;2022-09-12T07:11:34;100694.78;;;21.13;100.00
2405;BME280;1213;43.206;27.922;2022-09-12T07:14:02;100697.28;;;21.15;100.00
2405;BME280;1213;43.206;27.922;2022-09-12T07:16:28;100698.94;;;21.16;100.00
2405;BME280;1213;43.206;27.922;2022-09-12T07:18:59;100709.44;;;21.25;100.00
2405;BME280;1213;43.206;27.922;2022-09-12T07:21:25;100705.72;;;21.43;100.00
2405;BME280;1213;43.206;27.922;2022-09-12T07:23:51;100697.28;;;21.62;100.00
2405;BME280;1213;43.206;27.922;2022-09-12T07:26:19;100697.25;;;21.70;100.00
2405;BME280;1213;43.206;27.922;2022-09-12T07:28:50;100710.06;;;21.75;100.00
2405;BME280;1213;43.206;27.922;2022-09-12T07:31:17;100700.00;;;21.85;100.00
2405;BME280;1213;43.206;27.922;2022-09-12T07:33:43;100705.94;;;21.95;100.00
2405;BME280;1213;43.206;27.922;2022-09-12T07:36:14;100699.41;;;21.98;100.00
2405;BME280;1213;43.206;27.922;2022-09-12T07:38:40;100698.69;;;22.04;100.00
2405;BME280;1213;43.206;27.922;2022-09-12T07:41:11;100694.13;;;22.12;100.00
2405;BME280;1213;43.206;27.922;2022-09-12T07:43:36;100700.31;;;22.13;100.00
2405;BME280;1213;43.206;27.922;2022-09-12T07:46:02;100699.84;;;22.32;100.00
2405;BME280;1213;43.206;27.922;2022-09-12T07:48:28;100692.88;;;22.46;100.00
2405;BME280;1213;43.206;27.922;2022-09-12T07:50:57;100692.91;;;22.61;100.00
2405;BME280;1213;43.206;27.922;2022-09-12T07:53:25;100694.34;;;22.86;100.00
2405;BME280;1213;43.206;27.922;2022-09-12T07:55:54;100682.53;;;22.95;100.00
2405;BME280;1213;43.206;27.922;2022-09-12T07:58:20;100680.47;;;22.83;100.00
2405;BME280;1213;43.206;27.922;2022-09-12T08:00:46;100683.25;;;22.89;100.00
2405;BME280;1213;43.206;27.922;2022-09-12T08:05:36;100690.34;;;22.82;100.00
2405;BME280;1213;43.206;27.922;2022-09-12T08:08:02;100687.91;;;22.73;100.00
2405;BME280;1213;43.206;27.922;2022-09-12T08:10:27;100686.25;;;22.71;100.00
2405;BME280;1213;43.206;27.922;2022-09-12T08:12:53;100685.16;;;22.81;100.00
2405;BME280;1213;43.206;27.922;2022-09-12T08:15:18;100677.16;;;22.95;100.00
2405;BME280;1213;43.206;27.922;2022-09-12T08:17:44;100678.91;;;23.18;100.00
2405;BME280;1213;43.206;27.922;2022-09-12T08:20:10;100671.78;;;23.25;100.00
2405;BME280;1213;43.206;27.922;2022-09-12T08:22:36;100667.03;;;23.42;100.00
2405;BME280;1213;43.206;27.922;2022-09-12T08:25:02;100672.88;;;23.60;100.00
2405;BME280;1213;43.206;27.922;2022-09-12T08:27:28;100663.56;;;23.77;100.00
2405;BME280;1213;43.206;27.922;2022-09-12T08:29:56;100665.91;;;23.87;100.00
2405;BME280;1213;43.206;27.922;2022-09-12T08:32:22;100662.28;;;23.95;100.00
2405;BME280;1213;43.206;27.922;2022-09-12T08:34:47;100658.47;;;24.04;100.00
2405;BME280;1213;43.206;27.922;2022-09-12T08:37:13;100660.09;;;24.26;100.00
2405;BME280;1213;43.206;27.922;2022-09-12T08:39:39;100655.59;;;24.05;100.00
2405;BME280;1213;43.206;27.922;2022-09-12T08:42:05;100658.50;;;24.11;100.00
2405;BME280;1213;43.206;27.922;2022-09-12T08:47:55;100656.41;;;24.27;100.00
2405;BME280;1213;43.206;27.922;2022-09-12T08:50:21;100653.50;;;24.50;100.00
2405;BME280;1213;43.206;27.922;2022-09-12T08:52:57;100650.16;;;24.76;100.00
2405;BME280;1213;43.206;27.922;2022-09-12T08:58:16;100645.75;;;25.44;100.00
2405;BME280;1213;43.206;27.922;2022-09-12T09:17:29;100619.94;;;25.63;100.00
2405;BME280;1213;43.206;27.922;2022-09-12T09:28:33;100617.84;;;24.70;100.00
2405;BME280;1213;43.206;27.922;2022-09-12T09:31:00;100615.25;;;24.83;100.00
2405;BME280;1213;43.206;27.922;2022-09-12T09:33:33;100602.69;;;24.90;100.00
2405;BME280;1213;43.206;27.922;2022-09-12T09:41:44;100592.59;;;25.60;100.00
2405;BME280;1213;43.206;27.922;2022-09-12T09:44:14;100597.00;;;26.14;98.35
2405;BME280;1213;43.206;27.922;2022-09-12T09:46:39;100598.47;;;26.43;89.74
2405;BME280;1213;43.206;27.922;2022-09-12T09:49:05;100590.31;;;26.69;92.57
2405;BME280;1213;43.206;27.922;2022-09-12T09:51:37;100583.44;;;26.80;92.67
2405;BME280;1213;43.206;27.922;2022-09-12T09:56:40;100587.72;;;27.01;98.61
2405;BME280;1213;43.206;27.922;2022-09-12T10:01:51;100585.97;;;27.26;97.00
2405;BME280;1213;43.206;27.922;2022-09-12T10:04:31;100585.81;;;27.21;86.52
2405;BME280;1213;43.206;27.922;2022-09-12T10:07:00;100580.59;;;27.20;89.45
2405;BME280;1213;43.206;27.922;2022-09-12T10:09:28;100579.91;;;27.37;87.81
2405;BME280;1213;43.206;27.922;2022-09-12T10:11:55;100586.19;;;27.56;87.38
2405;BME280;1213;43.206;27.922;2022-09-12T10:14:40;100578.72;;;27.58;84.94
2405;BME280;1213;43.206;27.922;2022-09-12T10:17:31;100580.38;;;27.59;88.91
2405;BME280;1213;43.206;27.922;2022-09-12T10:20:04;100575.03;;;27.84;84.36
2405;BME280;1213;43.206;27.922;2022-09-12T10:22:30;100580.13;;;28.17;79.53
2405;BME280;1213;43.206;27.922;2022-09-12T10:24:59;100573.19;;;28.28;77.37
2405;BME280;1213;43.206;27.922;2022-09-12T10:27:34;100574.97;;;28.59;75.06
2405;BME280;1213;43.206;27.922;2022-09-12T10:30:16;100578.06;;;28.19;76.11
2405;BME280;1213;43.206;27.922;2022-09-12T10:32:47;100585.44;;;27.81;75.87
2405;BME280;1213;43.206;27.922;2022-09-12T10:40:23;100596.03;;;26.99;87.91
2405;BME280;1213;43.206;27.922;2022-09-12T10:42:50;100596.06;;;26.93;86.89
2405;BME280;1213;43.206;27.922;2022-09-12T10:45:35;100585.03;;;27.46;93.13
2405;BME280;1213;43.206;27.922;2022-09-12T10:48:27;100583.25;;;27.26;98.37
2405;BME280;1213;43.206;27.922;2022-09-12T10:50:53;100587.13;;;27.44;95.87
2405;BME280;1213;43.206;27.922;2022-09-12T11:01:40;100580.53;;;27.33;96.18
2405;BME280;1213;43.206;27.922;2022-09-12T11:15:49;100594.31;;;26.47;100.00
2405;BME280;1213;43.206;27.922;2022-09-12T11:23:58;100586.22;;;26.47;100.00
2405;BME280;1213;43.206;27.922;2022-09-12T11:26:53;100580.47;;;27.78;100.00
2405;BME280;1213;43.206;27.922;2022-09-12T11:33:19;100569.88;;;29.36;93.77
2405;BME280;1213;43.206;27.922;2022-09-12T11:35:22;100573.41;;;28.88;94.52
2405;BME280;1213;43.206;27.922;2022-09-12T11:40:58;100586.75;;;27.72;100.00
2405;BME280;1213;43.206;27.922;2022-09-12T11:43:43;100580.75;;;27.31;100.00
2405;BME280;1213;43.206;27.922;2022-09-12T11:46:26;100577.88;;;27.26;100.00
2405;BME280;1213;43.206;27.922;2022-09-12T11:48:57;100580.91;;;26.92;100.00
2405;BME280;1213;43.206;27.922;2022-09-12T11:54:13;100577.53;;;26.32;100.00
2405;BME280;1213;43.206;27.922;2022-09-12T11:56:44;100583.75;;;26.45;100.00
2405;BME280;1213;43.206;27.922;2022-09-12T11:59:29;100573.56;;;26.54;100.00
2405;BME280;1213;43.206;27.922;2022-09-12T12:01:58;100571.09;;;27.10;100.00
2405;BME280;1213;43.206;27.922;2022-09-12T12:04:44;100568.63;;;27.47;100.00
2405;BME280;1213;43.206;27.922;2022-09-12T12:07:12;100556.91;;;27.60;100.00
2405;BME280;1213;43.206;27.922;2022-09-12T12:09:50;100570.25;;;27.48;100.00
2405;BME280;1213;43.206;27.922;2022-09-12T12:12:24;100570.56;;;27.33;100.00
2405;BME280;1213;43.206;27.922;2022-09-12T12:14:53;100563.72;;;27.31;100.00
2405;BME280;1213;43.206;27.922;2022-09-12T12:17:21;100568.22;;;26.99;100.00
2405;BME280;1213;43.206;27.922;2022-09-12T12:19:56;100577.59;;;26.90;100.00
2405;BME280;1213;43.206;27.922;2022-09-12T12:22:24;100580.53;;;26.81;100.00
2405;BME280;1213;43.206;27.922;2022-09-12T12:27:51;100573.56;;;26.61;100.00
2405;BME280;1213;43.206;27.922;2022-09-12T12:36:04;100551.75;;;28.08;100.00
2405;BME280;1213;43.206;27.922;2022-09-12T12:38:39;100559.44;;;28.11;100.00
2405;BME280;1213;43.206;27.922;2022-09-12T12:43:52;100565.16;;;27.33;100.00
2405;BME280;1213;43.206;27.922;2022-09-12T12:46:25;100575.06;;;27.08;100.00
2405;BME280;1213;43.206;27.922;2022-09-12T12:51:53;100576.00;;;26.75;100.00
2405;BME280;1213;43.206;27.922;2022-09-12T12:54:29;100574.47;;;26.93;100.00
2405;BME280;1213;43.206;27.922;2022-09-12T12:57:04;100587.13;;;26.99;100.00
2405;BME280;1213;43.206;27.922;2022-09-12T12:59:48;100581.00;;;27.23;100.00
2405;BME280;1213;43.206;27.922;2022-09-12T13:10:59;100584.97;;;26.43;100.00
2405;BME280;1213;43.206;27.922;2022-09-12T13:13:41;100581.03;;;26.32;100.00
2405;BME280;1213;43.206;27.922;2022-09-12T13:18:56;100587.69;;;25.96;100.00
2405;BME280;1213;43.206;27.922;2022-09-12T13:21:27;100594.09;;;25.76;100.00
2405;BME280;1213;43.206;27.922;2022-09-12T13:24:03;100597.59;;;25.69;100.00
2405;BME280;1213;43.206;27.922;2022-09-12T13:26:34;100598.38;;;25.57;100.00
2405;BME280;1213;43.206;27.922;2022-09-12T13:29:14;100596.72;;;25.49;100.00
2405;BME280;1213;43.206;27.922;2022-09-12T13:31:41;100597.75;;;25.48;100.00
2405;BME280;1213;43.206;27.922;2022-09-12T13:34:08;100598.97;;;25.52;100.00
2405;BME280;1213;43.206;27.922;2022-09-12T13:39:54;100589.34;;;25.97;100.00
2405;BME280;1213;43.206;27.922;2022-09-12T13:42:40;100584.13;;;26.29;100.00
2405;BME280;1213;43.206;27.922;2022-09-12T13:47:45;100584.47;;;27.37;100.00
2405;BME280;1213;43.206;27.922;2022-09-12T13:50:24;100583.72;;;27.17;100.00
2405;BME280;1213;43.206;27.922;2022-09-12T13:52:56;100581.19;;;27.28;100.00
2405;BME280;1213;43.206;27.922;2022-09-12T13:58:03;100579.31;;;27.67;100.00
2405;BME280;1213;43.206;27.922;2022-09-12T14:00:31;100576.22;;;27.57;100.00
2405;BME280;1213;43.206;27.922;2022-09-12T14:02:58;100589.59;;;27.07;100.00
2405;BME280;1213;43.206;27.922;2022-09-12T14:05:59;100589.63;;;26.94;100.00
2405;BME280;1213;43.206;27.922;2022-09-12T14:08:28;100583.03;;;26.83;100.00
2405;BME280;1213;43.206;27.922;2022-09-12T14:10:54;100587.88;;;26.54;100.00
2405;BME280;1213;43.206;27.922;2022-09-12T14:13:23;100586.66;;;26.31;100.00
2405;BME280;1213;43.206;27.922;2022-09-12T14:15:50;100589.34;;;26.31;100.00
2405;BME280;1213;43.206;27.922;2022-09-12T14:18:31;100593.47;;;26.13;100.00
2405;BME280;1213;43.206;27.922;2022-09-12T14:21:06;100592.47;;;26.08;100.00
2405;BME280;1213;43.206;27.922;2022-09-12T14:23:38;100594.69;;;25.71;100.00
2405;BME280;1213;43.206;27.922;2022-09-12T14:26:08;100607.53;;;25.76;100.00
2405;BME280;1213;43.206;27.922;2022-09-12T14:28:39;100612.06;;;25.62;100.00
2405;BME280;1213;43.206;27.922;2022-09-12T14:33:49;100594.28;;;25.74;100.00
2405;BME280;1213;43.206;27.922;2022-09-12T14:38:58;100608.81;;;25.80;100.00
2405;BME280;1213;43.206;27.922;2022-09-12T14:41:44;100608.72;;;25.53;100.00
2405;BME280;1213;43.206;27.922;2022-09-12T14:44:36;100598.97;;;25.45;100.00
2405;BME280;1213;43.206;27.922;2022-09-12T14:47:18;100605.38;;;25.44;100.00
2405;BME280;1213;43.206;27.922;2022-09-12T14:49:45;100604.38;;;25.52;100.00
2405;BME280;1213;43.206;27.922;2022-09-12T14:52:32;100609.97;;;25.51;100.00
2405;BME280;1213;43.206;27.922;2022-09-12T14:57:39;100602.16;;;25.08;100.00
2405;BME280;1213;43.206;27.922;2022-09-12T15:00:16;100609.97;;;25.03;100.00
2405;BME280;1213;43.206;27.922;2022-09-12T15:02:46;100595.72;;;25.02;100.00
2405;BME280;1213;43.206;27.922;2022-09-12T15:08:12;100597.94;;;25.53;100.00
2405;BME280;1213;43.206;27.922;2022-09-12T15:10:38;100597.13;;;25.59;100.00
2405;BME280;1213;43.206;27.922;2022-09-12T15:15:30;100603.63;;;25.78;100.00
2405;BME280;1213;43.206;27.922;2022-09-12T15:17:58;100591.41;;;25.82;100.00
2405;BME280;1213;43.206;27.922;2022-09-12T15:20:23;100598.44;;;25.77;100.00
2405;BME280;1213;43.206;27.922;2022-09-12T15:22:49;100594.47;;;25.66;100.00
2405;BME280;1213;43.206;27.922;2022-09-12T15:25:15;100589.69;;;25.55;100.00
2405;BME280;1213;43.206;27.922;2022-09-12T15:27:41;100593.56;;;25.39;100.00
2405;BME280;1213;43.206;27.922;2022-09-12T15:30:10;100590.47;;;25.35;100.00
2405;BME280;1213;43.206;27.922;2022-09-12T15:32:37;100597.28;;;25.25;100.00
2405;BME280;1213;43.206;27.922;2022-09-12T15:37:35;100593.91;;;25.09;100.00
2405;BME280;1213;43.206;27.922;2022-09-12T15:40:00;100593.38;;;24.92;100.00
2405;BME280;1213;43.206;27.922;2022-09-12T15:42:28;100602.84;;;24.82;100.00
2405;BME280;1213;43.206;27.922;2022-09-12T15:44:55;100600.56;;;24.79;100.00
2405;BME280;1213;43.206;27.922;2022-09-12T15:47:20;100599.66;;;24.65;100.00
2405;BME280;1213;43.206;27.922;2022-09-12T15:49:47;100599.63;;;24.58;100.00
2405;BME280;1213;43.206;27.922;2022-09-12T15:52:15;100596.94;;;24.58;100.00
2405;BME280;1213;43.206;27.922;2022-09-12T15:54:41;100605.00;;;24.58;100.00
2405;BME280;1213;43.206;27.922;2022-09-12T15:57:07;100601.59;;;24.43;100.00
2405;BME280;1213;43.206;27.922;2022-09-12T15:59:34;100598.22;;;24.34;100.00
2405;BME280;1213;43.206;27.922;2022-09-12T16:01:59;100599.78;;;24.29;100.00
2405;BME280;1213;43.206;27.922;2022-09-12T16:04:27;100599.25;;;24.33;100.00
2405;BME280;1213;43.206;27.922;2022-09-12T16:06:54;100591.00;;;24.14;100.00